Barkley Regional Airport

Airport
ICAO code: 
KPAH
Summary
ICAO Region: 
NAM
Territory: 
Location: 
Paducah, Kentucky,
Coordinates: 
Aerial View: 
37° 3' 39.079" N, 88° 46' 20.782" W
Metar
Observation
KPAH 210353Z 35006KT 10SM OVC036 M06/M13 A3053 RMK AO2 SLP343 T10611133
Station
Paducah, Barkley Regional Airport
Date/Time
2022-01-21 03:53:00
Wind direction
350°
Wind speed
06 kts
Lowest cloud amount
overcast
Temperature
-6.1°C
Dew point
-13.3°C
Humidity
56%
Weather condition
n/a

Runways

Designator Length Width Surface Rops
14/32 1676 46 ASP Yes/Yes
4/22 1981 46 ASP Yes/Yes
Airport map: 
Aerial View: 

SKYbrary Partners:

Safety knowledge contributed by: